createdAt,value
2022-10-18T00:00:28.775Z,10.40
2022-10-18T00:03:32.458Z,10.39
2022-10-18T00:06:36.155Z,10.41
2022-10-18T00:09:40.632Z,10.37
2022-10-18T00:12:43.184Z,10.35
2022-10-18T00:16:03.509Z,10.27
2022-10-18T00:19:06.047Z,10.29
2022-10-18T00:22:08.938Z,10.29
2022-10-18T00:25:11.554Z,10.26
2022-10-18T00:28:14.398Z,10.22
2022-10-18T00:31:18.059Z,10.19
2022-10-18T00:34:20.896Z,10.22
2022-10-18T00:37:23.383Z,10.18
2022-10-18T00:40:26.193Z,10.17
2022-10-18T00:43:28.800Z,10.13
2022-10-18T00:46:34.716Z,10.10
2022-10-18T00:49:58.405Z,10.08
2022-10-18T00:53:05.267Z,10.05
2022-10-18T00:56:08.026Z,10.01
2022-10-18T00:59:12.000Z,9.99
2022-10-18T01:02:18.178Z,9.93
2022-10-18T01:05:21.096Z,9.92
2022-10-18T01:08:51.920Z,9.88
2022-10-18T01:12:00.787Z,9.87
2022-10-18T01:15:06.032Z,9.88
2022-10-18T01:18:21.356Z,9.85
2022-10-18T01:21:55.820Z,9.83
2022-10-18T01:25:49.353Z,9.57
2022-10-18T01:29:35.802Z,9.72
2022-10-18T01:32:45.180Z,9.64
2022-10-18T01:35:52.503Z,9.59
2022-10-18T01:38:58.057Z,9.61
2022-10-18T01:42:03.058Z,9.60
2022-10-18T01:45:07.927Z,9.58
2022-10-18T01:48:12.040Z,9.57
2022-10-18T01:51:14.843Z,9.55
2022-10-18T01:54:30.251Z,9.52
2022-10-18T01:57:37.756Z,9.51
2022-10-18T02:00:45.014Z,9.50
2022-10-18T02:03:48.753Z,9.50
2022-10-18T02:06:55.747Z,9.40
2022-10-18T02:10:30.069Z,9.44
2022-10-18T02:13:40.888Z,9.40
2022-10-18T02:16:52.488Z,9.42
2022-10-18T02:19:56.013Z,9.36
2022-10-18T02:22:59.879Z,9.32
2022-10-18T02:26:02.518Z,9.31
2022-10-18T02:29:05.469Z,9.28
2022-10-18T02:32:17.042Z,9.16
2022-10-18T02:35:23.780Z,9.23
2022-10-18T02:38:27.233Z,9.23
2022-10-18T02:41:30.753Z,9.21
2022-10-18T02:44:34.418Z,9.22
2022-10-18T02:47:37.247Z,9.24
2022-10-18T02:50:40.856Z,9.22
2022-10-18T02:53:43.644Z,9.23
2022-10-18T02:56:46.060Z,9.19
2022-10-18T02:59:48.936Z,9.20
2022-10-18T03:02:52.938Z,9.17
2022-10-18T03:05:55.655Z,9.12
2022-10-18T03:08:58.222Z,9.08
2022-10-18T03:12:01.068Z,9.08
2022-10-18T03:15:03.851Z,9.06
2022-10-18T03:18:06.682Z,9.06
2022-10-18T03:21:09.584Z,9.04
2022-10-18T03:24:12.368Z,9.01
2022-10-18T03:27:14.816Z,9.00
2022-10-18T03:30:18.581Z,8.98
2022-10-18T03:33:21.129Z,8.96
2022-10-18T03:36:24.290Z,8.94
2022-10-18T03:39:26.916Z,8.91
2022-10-18T03:42:30.100Z,8.91
2022-10-18T03:45:32.940Z,8.89
2022-10-18T03:48:35.763Z,8.85
2022-10-18T03:51:38.289Z,8.83
2022-10-18T03:54:41.059Z,8.82
2022-10-18T03:57:43.581Z,8.81
2022-10-18T04:00:50.026Z,8.80
2022-10-18T04:03:52.849Z,8.77
2022-10-18T04:06:55.276Z,8.73
2022-10-18T04:09:58.139Z,8.73
2022-10-18T04:13:00.627Z,8.74
2022-10-18T04:16:03.448Z,8.68
2022-10-18T04:19:05.950Z,8.66
2022-10-18T04:22:09.393Z,8.65
2022-10-18T04:25:11.929Z,8.63
2022-10-18T04:28:14.813Z,8.60
2022-10-18T04:31:17.263Z,8.56
2022-10-18T04:34:20.313Z,8.54
2022-10-18T04:37:22.773Z,8.54
2022-10-18T04:40:26.796Z,8.51
2022-10-18T04:43:29.231Z,8.48
2022-10-18T04:46:32.000Z,8.46
2022-10-18T04:49:34.752Z,8.44
2022-10-18T04:52:37.601Z,8.36
2022-10-18T04:55:40.056Z,8.37
2022-10-18T04:58:43.300Z,8.36
2022-10-18T05:01:45.879Z,8.35
2022-10-18T05:04:48.851Z,8.34
2022-10-18T05:07:51.468Z,8.34
2022-10-18T05:10:55.860Z,8.36
2022-10-18T05:13:58.437Z,8.33
2022-10-18T05:17:01.191Z,8.31
2022-10-18T05:20:04.519Z,8.31
2022-10-18T05:23:10.760Z,8.35
2022-10-18T05:26:13.271Z,8.37
2022-10-18T05:29:16.099Z,8.35
2022-10-18T05:32:18.669Z,8.37
2022-10-18T05:35:21.494Z,8.35
2022-10-18T05:38:24.627Z,8.36
2022-10-18T05:41:27.378Z,8.37
2022-10-18T05:44:29.891Z,8.37
2022-10-18T05:47:32.685Z,8.38
2022-10-18T05:50:38.072Z,8.39
2022-10-18T05:53:43.157Z,8.41
2022-10-18T05:56:45.632Z,8.44
2022-10-18T05:59:48.469Z,8.49
2022-10-18T06:02:50.979Z,8.51
2022-10-18T06:05:58.566Z,8.53
2022-10-18T06:09:03.270Z,8.57
2022-10-18T06:12:06.249Z,8.63
2022-10-18T06:15:09.252Z,8.72
2022-10-18T06:18:12.067Z,8.75
2022-10-18T06:21:14.684Z,8.87
2022-10-18T06:24:18.502Z,8.94
2022-10-18T06:27:20.954Z,9.04
2022-10-18T06:30:23.949Z,9.16
2022-10-18T06:33:26.577Z,9.24
2022-10-18T06:36:29.349Z,9.33
2022-10-18T06:39:31.866Z,9.38
2022-10-18T06:42:34.813Z,9.47
2022-10-18T06:45:37.499Z,9.58
2022-10-18T06:48:40.477Z,9.66
2022-10-18T06:51:43.757Z,9.72
2022-10-18T06:54:46.573Z,9.84
2022-10-18T06:57:49.022Z,9.89
2022-10-18T07:00:51.810Z,10.06
2022-10-18T07:03:55.153Z,10.24
2022-10-18T07:06:58.015Z,10.37
2022-10-18T07:10:00.475Z,10.50
2022-10-18T07:13:30.454Z,10.56
2022-10-18T07:16:26.372Z,10.76
2022-10-18T07:19:29.154Z,10.83
2022-10-18T07:22:31.711Z,11.02
2022-10-18T07:25:35.295Z,11.17
2022-10-18T07:28:37.990Z,11.36
2022-10-18T07:31:41.025Z,11.59
2022-10-18T07:34:43.594Z,11.71
2022-10-18T07:37:46.399Z,11.87
2022-10-18T07:40:49.025Z,12.07
2022-10-18T07:43:52.749Z,12.26
2022-10-18T07:46:55.306Z,12.49
2022-10-18T07:50:02.465Z,12.66
2022-10-18T07:53:05.041Z,12.89
2022-10-18T07:56:15.775Z,13.02
2022-10-18T07:59:18.359Z,13.19
2022-10-18T08:02:21.106Z,13.36
2022-10-18T08:05:24.028Z,13.51
2022-10-18T08:08:26.955Z,13.65
2022-10-18T08:11:29.809Z,13.83
2022-10-18T08:14:32.369Z,13.97
2022-10-18T08:17:35.252Z,14.16
2022-10-18T08:20:42.175Z,14.28
2022-10-18T08:23:45.140Z,14.44
2022-10-18T08:26:49.344Z,14.59
2022-10-18T08:29:52.687Z,14.75
2022-10-18T08:32:55.228Z,14.90
2022-10-18T08:35:59.411Z,15.06
2022-10-18T08:39:02.965Z,15.19
2022-10-18T08:42:17.876Z,15.34
2022-10-18T08:45:30.542Z,15.49
2022-10-18T08:48:51.416Z,15.69
2022-10-18T08:51:54.251Z,15.89
2022-10-18T08:55:21.375Z,16.05
2022-10-18T08:58:26.950Z,16.17
2022-10-18T09:01:52.728Z,16.36
2022-10-18T09:05:15.251Z,16.50
2022-10-18T09:08:43.063Z,16.69
2022-10-18T09:11:58.053Z,16.87
2022-10-18T09:15:32.804Z,16.95
2022-10-18T09:18:47.633Z,17.10
2022-10-18T09:21:55.534Z,17.30
2022-10-18T09:25:23.234Z,17.43
2022-10-18T09:29:05.467Z,17.57
2022-10-18T09:32:26.317Z,17.68
2022-10-18T09:35:50.366Z,17.78
2022-10-18T09:38:58.534Z,18.02
2022-10-18T09:42:13.438Z,18.18
2022-10-18T09:45:28.097Z,18.34
2022-10-18T09:48:53.524Z,18.49
2022-10-18T09:51:58.894Z,18.59
2022-10-18T09:55:05.880Z,18.70
2022-10-18T09:58:11.225Z,18.75
2022-10-18T10:01:23.963Z,18.78
2022-10-18T10:04:27.470Z,18.97
2022-10-18T10:07:35.386Z,19.01
2022-10-18T10:10:40.954Z,19.10
2022-10-18T10:13:43.360Z,19.24
2022-10-18T10:16:58.740Z,19.32
2022-10-18T10:20:25.247Z,19.34
2022-10-18T10:23:29.802Z,19.38
2022-10-18T10:26:34.335Z,19.42
2022-10-18T10:29:47.374Z,19.51
2022-10-18T10:32:51.714Z,19.55
2022-10-18T10:36:00.373Z,19.62
2022-10-18T10:39:10.374Z,19.74
2022-10-18T10:42:13.661Z,19.81
2022-10-18T10:45:16.235Z,19.83
2022-10-18T10:48:20.037Z,19.71
2022-10-18T10:51:30.041Z,19.85
2022-10-18T10:54:46.477Z,19.81
2022-10-18T10:57:53.081Z,19.87
2022-10-18T11:00:56.787Z,19.80
2022-10-18T11:04:02.030Z,19.92
2022-10-18T11:07:11.691Z,19.84
2022-10-18T11:10:18.282Z,19.83
2022-10-18T11:13:35.758Z,19.92
2022-10-18T11:16:47.742Z,19.87
2022-10-18T11:20:03.455Z,19.85
2022-10-18T11:23:08.390Z,19.97
2022-10-18T11:26:11.096Z,19.98
2022-10-18T11:29:42.840Z,20.08
2022-10-18T11:33:03.192Z,19.97
2022-10-18T11:39:53.133Z,20.08
2022-10-18T11:43:10.619Z,20.16
2022-10-18T11:46:18.870Z,20.15
2022-10-18T11:49:49.697Z,20.13
2022-10-18T11:53:11.362Z,20.09
2022-10-18T11:56:29.085Z,20.18
2022-10-18T11:59:38.309Z,20.18
2022-10-18T12:02:54.141Z,20.17
2022-10-18T12:05:59.359Z,20.09
2022-10-18T12:09:14.755Z,20.23
2022-10-18T12:12:34.018Z,20.13
2022-10-18T12:15:39.602Z,20.24
2022-10-18T12:18:55.008Z,20.37
2022-10-18T12:22:06.411Z,20.42
2022-10-18T12:25:14.277Z,20.43
2022-10-18T12:28:47.645Z,20.41
2022-10-18T12:31:53.550Z,20.62
2022-10-18T12:35:06.471Z,20.54
2022-10-18T12:38:19.918Z,20.61
2022-10-18T12:41:27.691Z,20.57
2022-10-18T12:44:35.183Z,20.65
2022-10-18T12:47:37.968Z,20.67
2022-10-18T12:50:43.330Z,20.78
2022-10-18T12:53:48.464Z,20.80
2022-10-18T12:56:51.290Z,20.81
2022-10-18T12:59:53.925Z,20.80
2022-10-18T13:03:18.182Z,20.83
2022-10-18T13:06:21.304Z,20.89
2022-10-18T13:09:28.286Z,20.92
2022-10-18T13:12:30.723Z,20.89
2022-10-18T13:15:49.042Z,20.90
2022-10-18T13:18:54.787Z,21.03
2022-10-18T13:21:57.795Z,21.07
2022-10-18T13:25:22.199Z,21.04
2022-10-18T13:28:39.371Z,21.12
2022-10-18T13:31:48.126Z,21.08
2022-10-18T13:34:51.145Z,21.03
2022-10-18T13:38:18.109Z,21.20
2022-10-18T13:41:47.171Z,21.20
2022-10-18T13:44:49.794Z,21.22
2022-10-18T13:47:52.668Z,21.19
2022-10-18T13:51:00.971Z,21.25
2022-10-18T13:54:41.970Z,21.21
2022-10-18T13:58:02.857Z,21.13
2022-10-18T14:01:33.366Z,21.06
2022-10-18T14:05:02.101Z,20.94
2022-10-18T14:08:45.050Z,20.88
2022-10-18T14:11:53.180Z,20.82
2022-10-18T14:15:09.307Z,20.71
2022-10-18T14:18:38.133Z,20.73
2022-10-18T14:21:44.998Z,20.67
2022-10-18T14:24:51.871Z,20.60
2022-10-18T14:28:13.174Z,20.59
2022-10-18T14:31:18.558Z,20.51
2022-10-18T14:34:21.844Z,20.32
2022-10-18T14:37:34.890Z,20.23
2022-10-18T14:40:40.252Z,20.18
2022-10-18T14:43:43.693Z,20.20
2022-10-18T14:46:59.883Z,20.15
2022-10-18T14:50:02.899Z,20.04
2022-10-18T14:53:15.469Z,20.06
2022-10-18T14:56:27.020Z,19.96
2022-10-18T14:59:31.301Z,19.88
2022-10-18T15:02:36.578Z,19.78
2022-10-18T15:05:51.785Z,19.69
2022-10-18T15:08:57.099Z,19.60
2022-10-18T15:12:00.953Z,19.47
2022-10-18T15:15:04.010Z,19.35
2022-10-18T15:18:07.015Z,19.23
2022-10-18T15:21:21.124Z,19.15
2022-10-18T15:24:26.697Z,19.04
2022-10-18T15:27:32.027Z,18.92
2022-10-18T15:30:41.242Z,18.78
2022-10-18T15:33:44.247Z,18.64
2022-10-18T15:36:48.557Z,18.52
2022-10-18T15:40:17.452Z,18.35
2022-10-18T15:43:23.027Z,18.17
2022-10-18T15:46:32.096Z,18.00
2022-10-18T15:49:48.443Z,17.87
2022-10-18T15:52:51.546Z,17.65
2022-10-18T15:56:13.931Z,17.53
2022-10-18T15:59:28.344Z,17.37
2022-10-18T16:02:31.277Z,17.23
2022-10-18T16:05:34.020Z,17.10
2022-10-18T16:08:42.410Z,17.01
2022-10-18T16:11:45.547Z,16.92
2022-10-18T16:14:47.990Z,16.76
2022-10-18T16:17:50.888Z,16.65
2022-10-18T16:20:53.471Z,16.48
2022-10-18T16:23:56.768Z,16.36
2022-10-18T16:26:59.186Z,16.07
2022-10-18T16:30:02.845Z,16.00
2022-10-18T16:33:07.599Z,15.92
2022-10-18T16:36:14.817Z,15.85
2022-10-18T16:39:18.693Z,15.74
2022-10-18T16:42:21.446Z,15.68
2022-10-18T16:45:23.971Z,15.57
2022-10-18T16:48:27.248Z,15.50
2022-10-18T16:51:29.777Z,15.41
2022-10-18T16:54:32.510Z,15.27
2022-10-18T16:57:37.106Z,15.20
2022-10-18T17:00:41.297Z,15.06
2022-10-18T17:03:44.113Z,14.96
2022-10-18T17:06:48.981Z,14.87
2022-10-18T17:09:51.985Z,14.79
2022-10-18T17:12:57.907Z,14.74
2022-10-18T17:16:00.803Z,14.40
2022-10-18T17:19:05.788Z,14.39
2022-10-18T17:22:08.331Z,14.40
2022-10-18T17:25:11.197Z,14.38
2022-10-18T17:28:16.240Z,14.36
2022-10-18T17:31:20.746Z,14.21
2022-10-18T17:34:23.196Z,14.17
2022-10-18T17:37:26.168Z,14.09
2022-10-18T17:40:28.767Z,14.00
2022-10-18T17:43:31.658Z,13.92
2022-10-18T17:46:34.245Z,13.81
2022-10-18T17:49:37.303Z,13.80
2022-10-18T17:52:44.705Z,13.74
2022-10-18T17:55:47.517Z,13.63
2022-10-18T17:58:51.551Z,13.55
2022-10-18T18:01:54.614Z,13.48
2022-10-18T18:04:57.424Z,13.42
2022-10-18T18:08:03.758Z,13.35
2022-10-18T18:11:07.385Z,13.26
2022-10-18T18:14:10.958Z,13.22
2022-10-18T18:17:14.147Z,13.17
2022-10-18T18:20:16.766Z,13.08
2022-10-18T18:23:19.609Z,13.01
2022-10-18T18:26:22.530Z,12.97
2022-10-18T18:29:26.754Z,12.96
2022-10-18T18:32:29.940Z,12.88
2022-10-18T18:35:32.965Z,12.79
2022-10-18T18:38:36.923Z,12.74
2022-10-18T18:41:39.765Z,12.70
2022-10-18T18:44:45.912Z,12.67
2022-10-18T18:47:48.715Z,12.66
2022-10-18T18:50:52.325Z,12.55
2022-10-18T18:53:55.238Z,12.47
2022-10-18T18:56:58.460Z,12.43
2022-10-18T19:00:01.568Z,12.39
2022-10-18T19:03:04.172Z,12.30
2022-10-18T19:06:10.068Z,12.29
2022-10-18T19:09:26.383Z,12.25
2022-10-18T19:12:31.497Z,12.19
2022-10-18T19:15:34.025Z,12.12
2022-10-18T19:18:36.877Z,12.05
2022-10-18T19:21:51.330Z,11.96
2022-10-18T19:24:54.199Z,11.98
2022-10-18T19:27:56.676Z,11.96
2022-10-18T19:30:59.731Z,11.88
2022-10-18T19:34:05.711Z,11.84
2022-10-18T19:37:10.232Z,11.80
2022-10-18T19:40:13.218Z,11.78
2022-10-18T19:43:15.991Z,11.67
2022-10-18T19:46:18.636Z,11.66
2022-10-18T19:49:21.696Z,11.68
2022-10-18T19:52:24.181Z,11.60
2022-10-18T19:55:27.225Z,11.52
2022-10-18T19:58:29.882Z,11.48
2022-10-18T20:01:32.896Z,11.50
2022-10-18T20:04:38.228Z,11.44
2022-10-18T20:07:42.535Z,11.40
2022-10-18T20:10:46.997Z,11.34
2022-10-18T20:13:50.186Z,11.31
2022-10-18T20:16:52.970Z,11.27
2022-10-18T20:19:55.456Z,11.21
2022-10-18T20:22:58.241Z,11.19
2022-10-18T20:26:10.178Z,11.10
2022-10-18T20:29:13.033Z,11.10
2022-10-18T20:32:15.891Z,11.02
2022-10-18T20:35:19.718Z,11.00
2022-10-18T20:38:22.326Z,10.93
2022-10-18T20:41:30.345Z,10.90
2022-10-18T20:44:33.980Z,10.90
2022-10-18T20:47:36.838Z,10.86
2022-10-18T20:50:42.080Z,10.79
2022-10-18T20:53:45.092Z,10.78
2022-10-18T20:56:47.518Z,10.71
2022-10-18T20:59:50.323Z,10.72
2022-10-18T21:02:52.860Z,10.72
2022-10-18T21:05:55.736Z,10.65
2022-10-18T21:09:01.184Z,10.63
2022-10-18T21:12:04.248Z,10.63
2022-10-18T21:15:07.442Z,10.58
2022-10-18T21:18:10.265Z,10.55
2022-10-18T21:21:22.973Z,10.49
2022-10-18T21:24:26.484Z,10.47
2022-10-18T21:27:28.945Z,10.45
2022-10-18T21:30:35.409Z,10.40
2022-10-18T21:33:38.534Z,10.39
2022-10-18T21:36:42.673Z,10.37
2022-10-18T21:39:46.248Z,10.36
2022-10-18T21:42:49.012Z,10.35
2022-10-18T21:45:58.430Z,10.33
2022-10-18T21:49:01.414Z,10.31
2022-10-18T21:52:05.367Z,10.30
2022-10-18T21:55:08.425Z,10.27
2022-10-18T21:58:11.273Z,10.22
2022-10-18T22:01:28.517Z,10.18
2022-10-18T22:04:35.704Z,10.18
2022-10-18T22:07:38.319Z,10.15
2022-10-18T22:10:41.479Z,10.16
2022-10-18T22:13:44.419Z,10.15
2022-10-18T22:16:47.246Z,10.16
2022-10-18T22:19:49.730Z,10.17
2022-10-18T22:22:54.036Z,10.20
2022-10-18T22:25:56.468Z,10.21
2022-10-18T22:29:08.010Z,10.25
2022-10-18T22:32:10.510Z,10.29
2022-10-18T22:35:13.307Z,10.31
2022-10-18T22:38:15.847Z,10.32
2022-10-18T22:41:19.218Z,10.36
2022-10-18T22:44:21.757Z,10.36
2022-10-18T22:47:24.803Z,10.39
2022-10-18T22:50:27.719Z,10.41
2022-10-18T22:53:31.872Z,10.45
2022-10-18T22:56:34.421Z,10.50
2022-10-18T22:59:37.265Z,10.52
2022-10-18T23:02:39.820Z,10.55
2022-10-18T23:05:44.097Z,10.63
2022-10-18T23:08:46.665Z,10.61
2022-10-18T23:11:50.940Z,10.64
2022-10-18T23:14:53.391Z,10.66
2022-10-18T23:17:57.827Z,10.65
2022-10-18T23:21:02.154Z,10.69
2022-10-18T23:24:05.070Z,10.68
2022-10-18T23:27:07.647Z,10.72
2022-10-18T23:30:11.707Z,10.74
2022-10-18T23:33:14.192Z,10.77
2022-10-18T23:36:17.427Z,10.79
2022-10-18T23:39:20.018Z,10.82
2022-10-18T23:42:22.871Z,10.86
2022-10-18T23:45:25.365Z,10.86
2022-10-18T23:48:28.559Z,10.87
2022-10-18T23:51:31.029Z,10.88
2022-10-18T23:54:34.146Z,10.84
2022-10-18T23:57:36.701Z,10.83
